createdAt,value
2018-01-14T00:00:24.052Z,1024.56
2018-01-14T00:01:24.238Z,1024.53
2018-01-14T00:02:24.028Z,1024.56
2018-01-14T00:03:23.982Z,1024.57
2018-01-14T00:04:24.308Z,1024.56
2018-01-14T00:05:24.157Z,1024.6
2018-01-14T00:06:24.065Z,1024.56
2018-01-14T00:07:24.209Z,1024.57
2018-01-14T00:08:24.235Z,1024.52
2018-01-14T00:09:24.210Z,1024.52
2018-01-14T00:10:24.112Z,1024.53
2018-01-14T00:11:24.034Z,1024.53
2018-01-14T00:12:24.081Z,1024.57
2018-01-14T00:13:23.861Z,1024.55
2018-01-14T00:14:24.449Z,1024.5
2018-01-14T00:15:24.302Z,1024.45
2018-01-14T00:16:24.313Z,1024.47
2018-01-14T00:17:24.427Z,1024.46
2018-01-14T00:18:24.545Z,1024.47
2018-01-14T00:19:24.538Z,1024.49
2018-01-14T00:20:24.156Z,1024.51
2018-01-14T00:21:24.708Z,1024.48
2018-01-14T00:22:24.295Z,1024.41
2018-01-14T00:23:24.241Z,1024.46
2018-01-14T00:24:24.163Z,1024.48
2018-01-14T00:25:25.340Z,1024.41
2018-01-14T00:26:24.736Z,1024.46
2018-01-14T00:27:24.957Z,1024.46
2018-01-14T00:28:23.968Z,1024.44
2018-01-14T00:29:24.450Z,1024.48
2018-01-14T00:30:24.206Z,1024.44
2018-01-14T00:31:24.274Z,1024.45
2018-01-14T00:32:24.288Z,1024.45
2018-01-14T00:33:24.472Z,1024.4
2018-01-14T00:34:24.411Z,1024.39
2018-01-14T00:35:24.639Z,1024.37
2018-01-14T00:36:24.442Z,1024.42
2018-01-14T00:37:24.868Z,1024.39
2018-01-14T00:38:24.903Z,1024.39
2018-01-14T00:39:24.472Z,1024.41
2018-01-14T00:40:24.509Z,1024.44
2018-01-14T00:41:24.384Z,1024.45
2018-01-14T00:42:24.460Z,1024.41
2018-01-14T00:43:24.439Z,1024.42
2018-01-14T00:44:24.143Z,1024.45
2018-01-14T00:45:24.335Z,1024.45
2018-01-14T00:46:24.655Z,1024.45
2018-01-14T00:47:24.581Z,1024.45
2018-01-14T00:48:24.707Z,1024.45
2018-01-14T00:49:24.980Z,1024.44
2018-01-14T00:50:24.468Z,1024.47
2018-01-14T00:51:24.507Z,1024.49
2018-01-14T00:52:24.819Z,1024.47
2018-01-14T00:53:24.494Z,1024.48
2018-01-14T00:54:24.471Z,1024.45
2018-01-14T00:55:24.446Z,1024.44
2018-01-14T00:56:24.712Z,1024.47
2018-01-14T00:57:24.332Z,1024.54
2018-01-14T00:58:24.413Z,1024.47
2018-01-14T00:59:24.796Z,1024.46
2018-01-14T01:00:24.556Z,1024.47
2018-01-14T01:01:24.427Z,1024.44
2018-01-14T01:02:24.454Z,1024.46
2018-01-14T01:03:24.288Z,1024.44
2018-01-14T01:04:24.306Z,1024.46
2018-01-14T01:05:24.111Z,1024.45
2018-01-14T01:06:24.572Z,1024.45
2018-01-14T01:07:24.439Z,1024.45
2018-01-14T01:08:24.453Z,1024.42
2018-01-14T01:09:24.322Z,1024.44
2018-01-14T01:10:24.454Z,1024.49
2018-01-14T01:11:24.453Z,1024.48
2018-01-14T01:12:24.410Z,1024.49
2018-01-14T01:13:25.511Z,1024.47
2018-01-14T01:14:25.005Z,1024.48
2018-01-14T01:15:24.571Z,1024.5
2018-01-14T01:16:24.324Z,1024.49
2018-01-14T01:17:24.336Z,1024.48
2018-01-14T01:18:23.912Z,1024.48
2018-01-14T01:19:24.785Z,1024.47
2018-01-14T01:20:24.310Z,1024.52
2018-01-14T01:21:25.008Z,1024.45
2018-01-14T01:22:23.910Z,1024.49
2018-01-14T01:23:24.435Z,1024.49
2018-01-14T01:24:24.825Z,1024.52
2018-01-14T01:25:24.406Z,1024.49
2018-01-14T01:26:24.430Z,1024.53
2018-01-14T01:27:24.794Z,1024.49
2018-01-14T01:28:24.045Z,1024.49
2018-01-14T01:29:24.410Z,1024.47
2018-01-14T01:30:24.470Z,1024.47
2018-01-14T01:31:24.547Z,1024.5
2018-01-14T01:32:24.479Z,1024.46
2018-01-14T01:33:24.564Z,1024.49
2018-01-14T01:34:24.885Z,1024.45
2018-01-14T01:35:24.407Z,1024.46
2018-01-14T01:36:24.752Z,1024.46
2018-01-14T01:37:24.401Z,1024.45
2018-01-14T01:38:24.697Z,1024.45
2018-01-14T01:39:24.247Z,1024.48
2018-01-14T01:40:24.330Z,1024.5
2018-01-14T01:41:24.401Z,1024.49
2018-01-14T01:42:24.335Z,1024.46
2018-01-14T01:43:24.561Z,1024.45
2018-01-14T01:44:24.554Z,1024.52
2018-01-14T01:45:24.596Z,1024.48
2018-01-14T01:46:24.701Z,1024.49
2018-01-14T01:47:24.547Z,1024.5
2018-01-14T01:48:24.825Z,1024.47
2018-01-14T01:49:24.487Z,1024.48
2018-01-14T01:50:24.131Z,1024.47
2018-01-14T01:51:25.470Z,1024.49
2018-01-14T01:52:24.448Z,1024.46
2018-01-14T01:53:23.974Z,1024.49
2018-01-14T01:54:24.775Z,1024.5
2018-01-14T01:55:24.169Z,1024.49
2018-01-14T01:56:24.855Z,1024.5
2018-01-14T01:57:24.784Z,1024.46
2018-01-14T01:58:24.532Z,1024.49
2018-01-14T01:59:24.654Z,1024.49
2018-01-14T02:00:24.367Z,1024.48
2018-01-14T02:01:24.547Z,1024.53
2018-01-14T02:02:24.085Z,1024.49
2018-01-14T02:03:24.953Z,1024.47
2018-01-14T02:04:24.641Z,1024.44
2018-01-14T02:05:24.572Z,1024.41
2018-01-14T02:06:24.054Z,1024.4
2018-01-14T02:07:24.045Z,1024.42
2018-01-14T02:08:24.835Z,1024.42
2018-01-14T02:09:24.727Z,1024.36
2018-01-14T02:10:24.118Z,1024.4
2018-01-14T02:11:24.568Z,1024.38
2018-01-14T02:12:24.119Z,1024.39
2018-01-14T02:13:24.140Z,1024.36
2018-01-14T02:14:25.531Z,1024.4
2018-01-14T02:15:24.203Z,1024.4
2018-01-14T02:16:24.033Z,1024.4
2018-01-14T02:17:24.640Z,1024.36
2018-01-14T02:18:24.656Z,1024.41
2018-01-14T02:19:24.834Z,1024.45
2018-01-14T02:20:24.864Z,1024.48
2018-01-14T02:21:24.773Z,1024.45
2018-01-14T02:22:24.527Z,1024.44
2018-01-14T02:23:25.053Z,1024.42
2018-01-14T02:24:24.671Z,1024.43
2018-01-14T02:25:24.191Z,1024.4
2018-01-14T02:26:24.793Z,1024.43
2018-01-14T02:27:25.037Z,1024.44
2018-01-14T02:28:24.445Z,1024.44
2018-01-14T02:29:24.045Z,1024.42
2018-01-14T02:30:25.063Z,1024.41
2018-01-14T02:31:24.435Z,1024.41
2018-01-14T02:32:24.332Z,1024.44
2018-01-14T02:35:23.963Z,1024.46
2018-01-14T02:36:24.629Z,1024.42
2018-01-14T02:37:25.361Z,1024.44
2018-01-14T02:38:23.582Z,1024.49
2018-01-14T02:39:23.472Z,1024.45
2018-01-14T02:40:23.619Z,1024.46
2018-01-14T02:41:23.525Z,1024.47
2018-01-14T02:42:23.352Z,1024.43
2018-01-14T02:43:23.323Z,1024.44
2018-01-14T02:44:23.455Z,1024.49
2018-01-14T02:45:23.615Z,1024.48
2018-01-14T02:46:23.466Z,1024.43
2018-01-14T02:47:24.295Z,1024.51
2018-01-14T02:48:23.729Z,1024.53
2018-01-14T02:49:23.553Z,1024.49
2018-01-14T02:50:23.366Z,1024.45
2018-01-14T02:51:23.483Z,1024.46
2018-01-14T02:52:23.478Z,1024.47
2018-01-14T02:53:23.610Z,1024.51
2018-01-14T02:54:23.514Z,1024.48
2018-01-14T02:55:23.653Z,1024.49
2018-01-14T02:56:23.425Z,1024.5
2018-01-14T02:57:23.887Z,1024.55
2018-01-14T02:58:23.749Z,1024.55
2018-01-14T02:59:23.739Z,1024.53
2018-01-14T03:00:24.447Z,1024.57
2018-01-14T03:01:23.582Z,1024.52
2018-01-14T03:02:23.663Z,1024.53
2018-01-14T03:03:23.347Z,1024.56
2018-01-14T03:04:23.483Z,1024.56
2018-01-14T03:05:23.691Z,1024.53
2018-01-14T03:06:24.199Z,1024.51
2018-01-14T03:07:23.503Z,1024.5
2018-01-14T03:08:23.369Z,1024.48
2018-01-14T03:09:23.332Z,1024.56
2018-01-14T03:10:23.690Z,1024.53
2018-01-14T03:11:23.582Z,1024.54
2018-01-14T03:12:23.536Z,1024.55
2018-01-14T03:13:23.458Z,1024.54
2018-01-14T03:14:24.666Z,1024.53
2018-01-14T03:15:23.899Z,1024.56
2018-01-14T03:16:23.756Z,1024.54
2018-01-14T03:17:23.785Z,1024.53
2018-01-14T03:18:24.847Z,1024.49
2018-01-14T03:19:23.538Z,1024.51
2018-01-14T03:20:24.296Z,1024.53
2018-01-14T03:21:23.868Z,1024.48
2018-01-14T03:22:23.762Z,1024.51
2018-01-14T03:23:24.143Z,1024.5
2018-01-14T03:24:23.473Z,1024.49
2018-01-14T03:25:23.815Z,1024.49
2018-01-14T03:26:24.179Z,1024.5
2018-01-14T03:27:23.628Z,1024.52
2018-01-14T03:28:23.861Z,1024.53
2018-01-14T03:29:23.600Z,1024.55
2018-01-14T03:30:23.664Z,1024.55
2018-01-14T03:31:23.643Z,1024.57
2018-01-14T03:32:23.565Z,1024.56
2018-01-14T03:33:23.453Z,1024.54
2018-01-14T03:34:23.654Z,1024.51
2018-01-14T03:35:23.752Z,1024.5
2018-01-14T03:36:23.678Z,1024.54
2018-01-14T03:37:23.916Z,1024.52
2018-01-14T03:38:23.680Z,1024.46
2018-01-14T03:39:23.667Z,1024.5
2018-01-14T03:40:23.761Z,1024.53
2018-01-14T03:41:23.611Z,1024.59
2018-01-14T03:42:23.639Z,1024.54
2018-01-14T03:43:23.724Z,1024.46
2018-01-14T03:44:23.947Z,1024.46
2018-01-14T03:45:24.183Z,1024.47
2018-01-14T03:46:24.254Z,1024.54
2018-01-14T03:47:24.763Z,1024.47
2018-01-14T03:48:24.590Z,1024.44
2018-01-14T03:49:24.506Z,1024.49
2018-01-14T03:50:23.997Z,1024.51
2018-01-14T03:51:23.623Z,1024.57
2018-01-14T03:52:23.617Z,1024.55
2018-01-14T03:53:23.715Z,1024.54
2018-01-14T03:54:24.306Z,1024.52
2018-01-14T03:55:23.429Z,1024.53
2018-01-14T03:56:23.914Z,1024.53
2018-01-14T03:57:23.835Z,1024.59
2018-01-14T03:58:23.850Z,1024.57
2018-01-14T03:59:23.783Z,1024.55
2018-01-14T04:00:24.414Z,1024.55
2018-01-14T04:01:23.658Z,1024.56
2018-01-14T04:02:23.799Z,1024.59
2018-01-14T04:03:24.010Z,1024.63
2018-01-14T04:04:23.623Z,1024.6
2018-01-14T04:05:23.597Z,1024.64
2018-01-14T04:06:23.740Z,1024.66
2018-01-14T04:07:24.090Z,1024.64
2018-01-14T04:08:23.739Z,1024.65
2018-01-14T04:09:23.716Z,1024.66
2018-01-14T04:10:23.627Z,1024.7
2018-01-14T04:11:23.486Z,1024.71
2018-01-14T04:12:23.626Z,1024.69
2018-01-14T04:13:23.664Z,1024.68
2018-01-14T04:14:23.585Z,1024.69
2018-01-14T04:15:24.241Z,1024.7
2018-01-14T04:16:23.632Z,1024.7
2018-01-14T04:17:23.572Z,1024.72
2018-01-14T04:18:23.640Z,1024.7
2018-01-14T04:19:23.530Z,1024.74
2018-01-14T04:20:23.519Z,1024.68
2018-01-14T04:21:23.725Z,1024.74
2018-01-14T04:22:23.616Z,1024.72
2018-01-14T04:23:23.636Z,1024.69
2018-01-14T04:24:23.606Z,1024.74
2018-01-14T04:25:23.560Z,1024.68
2018-01-14T04:26:23.551Z,1024.68
2018-01-14T04:27:23.669Z,1024.73
2018-01-14T04:28:23.646Z,1024.71
2018-01-14T04:29:23.640Z,1024.7
2018-01-14T04:30:23.665Z,1024.68
2018-01-14T04:31:23.563Z,1024.68
2018-01-14T04:32:23.578Z,1024.69
2018-01-14T04:33:23.735Z,1024.69
2018-01-14T04:34:23.695Z,1024.66
2018-01-14T04:35:23.646Z,1024.68
2018-01-14T04:36:23.715Z,1024.64
2018-01-14T04:37:23.671Z,1024.62
2018-01-14T04:38:23.643Z,1024.65
2018-01-14T04:39:23.579Z,1024.66
2018-01-14T04:40:23.608Z,1024.63
2018-01-14T04:41:23.675Z,1024.67
2018-01-14T04:42:23.553Z,1024.68
2018-01-14T04:43:23.764Z,1024.64
2018-01-14T04:44:23.681Z,1024.69
2018-01-14T04:45:23.623Z,1024.67
2018-01-14T04:46:23.706Z,1024.66
2018-01-14T04:47:23.655Z,1024.72
2018-01-14T04:48:23.709Z,1024.7
2018-01-14T04:49:23.709Z,1024.71
2018-01-14T04:50:23.621Z,1024.7
2018-01-14T04:51:23.655Z,1024.69
2018-01-14T04:52:23.705Z,1024.72
2018-01-14T04:53:23.653Z,1024.7
2018-01-14T04:54:23.582Z,1024.68
2018-01-14T04:55:23.706Z,1024.69
2018-01-14T04:56:23.597Z,1024.73
2018-01-14T04:57:23.637Z,1024.73
2018-01-14T04:58:23.657Z,1024.74
2018-01-14T04:59:23.661Z,1024.76
2018-01-14T05:00:23.633Z,1024.73
2018-01-14T05:01:23.691Z,1024.76
2018-01-14T05:02:23.698Z,1024.78
2018-01-14T05:03:23.680Z,1024.75
2018-01-14T05:04:23.649Z,1024.73
2018-01-14T05:05:23.758Z,1024.73
2018-01-14T05:06:23.710Z,1024.8
2018-01-14T05:07:23.581Z,1024.78
2018-01-14T05:08:23.534Z,1024.78
2018-01-14T05:09:23.630Z,1024.8
2018-01-14T05:10:23.685Z,1024.78
2018-01-14T05:11:23.672Z,1024.82
2018-01-14T05:12:23.657Z,1024.86
2018-01-14T05:13:23.614Z,1024.82
2018-01-14T05:14:23.629Z,1024.81
2018-01-14T05:15:23.826Z,1024.78
2018-01-14T05:16:23.699Z,1024.83
2018-01-14T05:17:23.798Z,1024.8
2018-01-14T05:18:23.793Z,1024.8
2018-01-14T05:19:23.655Z,1024.81
2018-01-14T05:20:23.625Z,1024.85
2018-01-14T05:21:23.742Z,1024.86
2018-01-14T05:22:23.789Z,1024.86
2018-01-14T05:23:23.796Z,1024.86
2018-01-14T05:24:23.754Z,1024.88
2018-01-14T05:25:23.738Z,1024.88
2018-01-14T05:26:23.660Z,1024.91
2018-01-14T05:27:23.756Z,1024.88
2018-01-14T05:28:23.790Z,1024.94
2018-01-14T05:29:23.719Z,1024.92
2018-01-14T05:30:23.700Z,1024.89
2018-01-14T05:31:23.700Z,1024.89
2018-01-14T05:32:23.727Z,1024.93
2018-01-14T05:33:23.778Z,1024.91
2018-01-14T05:34:23.787Z,1024.94
2018-01-14T05:35:23.657Z,1024.94
2018-01-14T05:36:23.656Z,1024.92
2018-01-14T05:37:23.765Z,1024.96
2018-01-14T05:38:23.789Z,1024.98
2018-01-14T05:39:23.789Z,1024.98
2018-01-14T05:40:23.772Z,1024.97
2018-01-14T05:41:23.767Z,1024.95
2018-01-14T05:42:23.785Z,1024.98
2018-01-14T05:43:23.725Z,1025.03
2018-01-14T05:44:23.698Z,1025.04
2018-01-14T05:45:23.808Z,1025.01
2018-01-14T05:46:23.748Z,1025.01
2018-01-14T05:47:23.742Z,1025.01
2018-01-14T05:48:23.773Z,1025
2018-01-14T05:49:23.770Z,1025.02
2018-01-14T05:50:23.830Z,1024.99
2018-01-14T05:51:23.769Z,1025.05
2018-01-14T05:52:23.817Z,1025.02
2018-01-14T05:53:23.862Z,1025.04
2018-01-14T05:54:23.738Z,1025.03
2018-01-14T05:55:23.725Z,1025.04
2018-01-14T05:56:23.861Z,1025.01
2018-01-14T05:57:23.723Z,1025
2018-01-14T05:58:23.770Z,1024.98
2018-01-14T05:59:23.887Z,1025
2018-01-14T06:00:23.783Z,1024.99
2018-01-14T06:01:23.773Z,1024.97
2018-01-14T06:02:23.726Z,1024.99
2018-01-14T06:03:23.709Z,1024.98
2018-01-14T06:04:23.731Z,1025.01
2018-01-14T06:05:24.068Z,1025.02
2018-01-14T06:06:23.777Z,1025.04
2018-01-14T06:07:23.710Z,1025.04
2018-01-14T06:08:23.870Z,1025.07
2018-01-14T06:09:23.726Z,1025.07
2018-01-14T06:10:23.754Z,1025.11
2018-01-14T06:11:23.813Z,1025.11
2018-01-14T06:12:23.746Z,1025.1
2018-01-14T06:13:23.824Z,1025.12
2018-01-14T06:14:23.722Z,1025.09
2018-01-14T06:15:23.860Z,1025.1
2018-01-14T06:16:23.778Z,1025.14
2018-01-14T06:17:23.778Z,1025.08
2018-01-14T06:18:23.867Z,1025.12
2018-01-14T06:19:23.770Z,1025.13
2018-01-14T06:20:23.773Z,1025.09
2018-01-14T06:21:23.797Z,1025.18
2018-01-14T06:22:23.956Z,1025.17
2018-01-14T06:23:23.831Z,1025.12
2018-01-14T06:24:23.826Z,1025.16
2018-01-14T06:25:23.859Z,1025.18
2018-01-14T06:26:23.791Z,1025.15
2018-01-14T06:27:23.860Z,1025.17
2018-01-14T06:28:23.879Z,1025.22
2018-01-14T06:29:23.923Z,1025.2
2018-01-14T06:30:23.739Z,1025.15
2018-01-14T06:31:23.801Z,1025.18
2018-01-14T06:32:23.863Z,1025.19
2018-01-14T06:33:23.747Z,1025.2
2018-01-14T06:34:23.753Z,1025.11
2018-01-14T06:35:23.840Z,1025.19
2018-01-14T06:36:23.743Z,1025.19
2018-01-14T06:37:23.912Z,1025.17
2018-01-14T06:38:23.869Z,1025.13
2018-01-14T06:39:23.818Z,1025.18
2018-01-14T06:40:23.772Z,1025.2
2018-01-14T06:41:23.778Z,1025.14
2018-01-14T06:42:23.903Z,1025.15
2018-01-14T06:43:24.347Z,1025.12
2018-01-14T06:44:23.846Z,1025.11
2018-01-14T06:45:23.874Z,1025.15
2018-01-14T06:46:23.850Z,1025.14
2018-01-14T06:47:23.922Z,1025.12
2018-01-14T06:48:23.905Z,1025.13
2018-01-14T06:49:23.843Z,1025.12
2018-01-14T06:50:23.885Z,1025.06
2018-01-14T06:51:23.940Z,1025.11
2018-01-14T06:52:23.894Z,1025.1
2018-01-14T06:53:23.843Z,1025.08
2018-01-14T06:54:23.858Z,1025.09
2018-01-14T06:55:23.772Z,1025.13
2018-01-14T06:56:23.895Z,1025.13
2018-01-14T06:57:23.839Z,1025.13
2018-01-14T06:58:23.817Z,1025.13
2018-01-14T06:59:23.912Z,1025.18
2018-01-14T07:00:24.035Z,1025.17
2018-01-14T07:01:23.969Z,1025.24
2018-01-14T07:02:23.874Z,1025.25
2018-01-14T07:03:23.919Z,1025.29
2018-01-14T07:04:23.821Z,1025.24
2018-01-14T07:05:23.907Z,1025.27
2018-01-14T07:06:23.963Z,1025.31
2018-01-14T07:07:23.930Z,1025.29
2018-01-14T07:08:23.899Z,1025.29
2018-01-14T07:09:23.868Z,1025.28
2018-01-14T07:10:23.941Z,1025.27
2018-01-14T07:11:23.949Z,1025.28
2018-01-14T07:12:23.940Z,1025.28
2018-01-14T07:13:23.897Z,1025.29
2018-01-14T07:14:23.810Z,1025.3
2018-01-14T07:15:24.217Z,1025.27
2018-01-14T07:16:24.027Z,1025.25
2018-01-14T07:17:24.015Z,1025.31
2018-01-14T07:18:24.033Z,1025.3
2018-01-14T07:19:24.057Z,1025.29
2018-01-14T07:20:23.959Z,1025.27
2018-01-14T07:21:23.950Z,1025.34
2018-01-14T07:22:23.995Z,1025.33
2018-01-14T07:23:23.928Z,1025.35
2018-01-14T07:24:23.959Z,1025.37
2018-01-14T07:25:24.499Z,1025.37
2018-01-14T07:26:23.931Z,1025.37
2018-01-14T07:27:24.027Z,1025.34
2018-01-14T07:28:23.997Z,1025.33
2018-01-14T07:29:24.003Z,1025.36
2018-01-14T07:30:23.915Z,1025.36
2018-01-14T07:31:24.098Z,1025.35
2018-01-14T07:32:23.922Z,1025.37
2018-01-14T07:33:23.967Z,1025.35
2018-01-14T07:34:24.089Z,1025.35
2018-01-14T07:35:23.965Z,1025.38
2018-01-14T07:36:23.939Z,1025.32
2018-01-14T07:37:23.961Z,1025.36
2018-01-14T07:38:24.103Z,1025.37
2018-01-14T07:39:23.990Z,1025.36
2018-01-14T07:40:23.914Z,1025.37
2018-01-14T07:41:23.920Z,1025.42
2018-01-14T07:42:24.083Z,1025.4
2018-01-14T07:43:24.096Z,1025.35
2018-01-14T07:44:23.889Z,1025.39
2018-01-14T07:45:24.169Z,1025.36
2018-01-14T07:46:24.130Z,1025.38
2018-01-14T07:47:24.084Z,1025.34
2018-01-14T07:48:24.145Z,1025.3
2018-01-14T07:49:24.076Z,1025.32
2018-01-14T07:50:24.017Z,1025.32
2018-01-14T07:51:24.020Z,1025.28
2018-01-14T07:52:24.272Z,1025.32
2018-01-14T07:53:24.053Z,1025.27
2018-01-14T07:54:24.174Z,1025.26
2018-01-14T07:55:24.081Z,1025.26
2018-01-14T07:56:24.057Z,1025.22
2018-01-14T07:57:24.060Z,1025.23
2018-01-14T07:58:24.369Z,1025.23
2018-01-14T07:59:24.225Z,1025.2
2018-01-14T08:00:24.153Z,1025.2
2018-01-14T08:01:24.042Z,1025.25
2018-01-14T08:02:24.075Z,1025.21
2018-01-14T08:03:24.061Z,1025.26
2018-01-14T08:04:24.026Z,1025.24
2018-01-14T08:05:24.183Z,1025.25
2018-01-14T08:06:24.141Z,1025.26
2018-01-14T08:07:24.041Z,1025.26
2018-01-14T08:08:24.212Z,1025.28
2018-01-14T08:09:24.033Z,1025.3
2018-01-14T08:10:24.107Z,1025.27
2018-01-14T08:11:24.206Z,1025.33
2018-01-14T08:12:24.092Z,1025.34
2018-01-14T08:13:24.016Z,1025.32
2018-01-14T08:14:24.118Z,1025.41
2018-01-14T08:15:24.225Z,1025.37
2018-01-14T08:16:23.169Z,1025.39
2018-01-14T08:17:23.185Z,1025.4
2018-01-14T08:18:23.191Z,1025.37
2018-01-14T08:19:23.288Z,1025.43
2018-01-14T08:20:23.480Z,1025.41
2018-01-14T08:21:23.418Z,1025.41
2018-01-14T08:22:23.172Z,1025.44
2018-01-14T08:23:23.225Z,1025.46
2018-01-14T08:24:23.252Z,1025.52
2018-01-14T08:25:23.228Z,1025.51
2018-01-14T08:26:23.085Z,1025.53
2018-01-14T08:27:23.226Z,1025.58
2018-01-14T08:28:23.127Z,1025.56
2018-01-14T08:29:23.239Z,1025.6
2018-01-14T08:30:23.099Z,1025.58
2018-01-14T08:31:23.151Z,1025.57
2018-01-14T08:32:23.146Z,1025.58
2018-01-14T08:33:23.212Z,1025.6
2018-01-14T08:34:23.094Z,1025.55
2018-01-14T08:35:23.414Z,1025.54
2018-01-14T08:36:23.140Z,1025.53
2018-01-14T08:37:23.162Z,1025.5
2018-01-14T08:38:23.092Z,1025.53
2018-01-14T08:39:23.162Z,1025.55
2018-01-14T08:40:23.121Z,1025.53
2018-01-14T08:41:23.194Z,1025.55
2018-01-14T08:42:23.232Z,1025.53
2018-01-14T08:43:23.150Z,1025.58
2018-01-14T08:44:23.109Z,1025.58
2018-01-14T08:45:23.215Z,1025.54
2018-01-14T08:46:23.228Z,1025.56
2018-01-14T08:47:23.236Z,1025.54
2018-01-14T08:48:23.164Z,1025.61
2018-01-14T08:49:23.193Z,1025.54
2018-01-14T08:50:23.300Z,1025.55
2018-01-14T08:51:23.131Z,1025.57
2018-01-14T08:52:23.323Z,1025.61
2018-01-14T08:53:23.209Z,1025.57
2018-01-14T08:54:23.289Z,1025.61
2018-01-14T08:55:23.156Z,1025.6
2018-01-14T08:56:23.170Z,1025.62
2018-01-14T08:57:23.200Z,1025.63
2018-01-14T08:58:23.740Z,1025.64
2018-01-14T08:59:23.274Z,1025.66
2018-01-14T09:00:23.167Z,1025.66
2018-01-14T09:01:23.236Z,1025.67
2018-01-14T09:02:23.230Z,1025.7
2018-01-14T09:03:23.127Z,1025.74
2018-01-14T09:04:23.168Z,1025.74
2018-01-14T09:05:23.185Z,1025.78
2018-01-14T09:06:23.164Z,1025.77
2018-01-14T09:07:23.282Z,1025.82
2018-01-14T09:08:23.181Z,1025.8
2018-01-14T09:09:23.198Z,1025.81
2018-01-14T09:10:23.220Z,1025.81
2018-01-14T09:11:23.316Z,1025.8
2018-01-14T09:12:23.283Z,1025.79
2018-01-14T09:13:23.225Z,1025.77
2018-01-14T09:14:23.184Z,1025.8
2018-01-14T09:15:23.523Z,1025.79
2018-01-14T09:16:23.250Z,1025.77
2018-01-14T09:17:23.368Z,1025.76
2018-01-14T09:18:23.234Z,1025.79
2018-01-14T09:19:23.219Z,1025.79
2018-01-14T09:20:23.288Z,1025.79
2018-01-14T09:21:23.191Z,1025.8
2018-01-14T09:22:23.200Z,1025.83
2018-01-14T09:23:23.252Z,1025.85
2018-01-14T09:24:23.277Z,1025.83
2018-01-14T09:25:23.254Z,1025.84
2018-01-14T09:26:23.312Z,1025.82
2018-01-14T09:27:23.376Z,1025.82
2018-01-14T09:28:23.381Z,1025.79
2018-01-14T09:29:23.364Z,1025.81
2018-01-14T09:30:23.305Z,1025.81
2018-01-14T09:31:23.222Z,1025.79
2018-01-14T09:32:23.440Z,1025.79
2018-01-14T09:33:23.226Z,1025.81
2018-01-14T09:34:23.321Z,1025.8
2018-01-14T09:35:23.213Z,1025.78
2018-01-14T09:36:23.293Z,1025.81
2018-01-14T09:37:23.259Z,1025.77
2018-01-14T09:38:23.697Z,1025.82
2018-01-14T09:39:23.151Z,1025.82
2018-01-14T09:40:23.374Z,1025.79
2018-01-14T09:41:23.376Z,1025.78
2018-01-14T09:42:23.272Z,1025.79
2018-01-14T09:43:23.515Z,1025.81
2018-01-14T09:44:23.290Z,1025.86
2018-01-14T09:45:23.307Z,1025.81
2018-01-14T09:46:23.335Z,1025.81
2018-01-14T09:47:23.377Z,1025.82
2018-01-14T09:48:23.345Z,1025.79
2018-01-14T09:49:23.388Z,1025.81
2018-01-14T09:50:23.259Z,1025.82
2018-01-14T09:51:23.400Z,1025.8
2018-01-14T09:52:23.368Z,1025.8
2018-01-14T09:53:23.338Z,1025.83
2018-01-14T09:54:23.373Z,1025.86
2018-01-14T09:55:23.341Z,1025.82
2018-01-14T09:56:23.413Z,1025.86
2018-01-14T09:57:23.516Z,1025.88
2018-01-14T09:58:23.329Z,1025.87
2018-01-14T09:59:23.529Z,1025.87
2018-01-14T10:00:23.477Z,1025.91
2018-01-14T10:01:23.473Z,1025.91
2018-01-14T10:02:23.341Z,1025.87
2018-01-14T10:03:23.381Z,1025.87
2018-01-14T10:04:23.452Z,1025.89
2018-01-14T10:05:23.514Z,1025.87
2018-01-14T10:06:23.354Z,1025.88
2018-01-14T10:07:23.428Z,1025.89
2018-01-14T10:08:23.403Z,1025.84
2018-01-14T10:09:23.686Z,1025.86
2018-01-14T10:10:23.450Z,1025.87
2018-01-14T10:11:23.406Z,1025.8
2018-01-14T10:12:23.477Z,1025.82
2018-01-14T10:13:23.451Z,1025.82
2018-01-14T10:14:23.456Z,1025.82
2018-01-14T10:15:23.325Z,1025.75
2018-01-14T10:16:23.413Z,1025.75
2018-01-14T10:17:23.355Z,1025.74
2018-01-14T10:18:23.268Z,1025.76
2018-01-14T10:19:23.263Z,1025.72
2018-01-14T10:20:23.462Z,1025.72
2018-01-14T10:21:23.415Z,1025.68
2018-01-14T10:22:23.262Z,1025.71
2018-01-14T10:23:23.349Z,1025.72
2018-01-14T10:24:23.325Z,1025.67
2018-01-14T10:25:23.671Z,1025.61
2018-01-14T10:26:24.120Z,1025.61
2018-01-14T10:27:23.416Z,1025.67
2018-01-14T10:28:23.358Z,1025.62
2018-01-14T10:29:23.359Z,1025.59
2018-01-14T10:30:23.305Z,1025.61
2018-01-14T10:31:23.437Z,1025.63
2018-01-14T10:32:23.390Z,1025.6
2018-01-14T10:33:23.452Z,1025.59
2018-01-14T10:34:23.403Z,1025.57
2018-01-14T10:35:23.386Z,1025.56
2018-01-14T10:36:23.398Z,1025.57
2018-01-14T10:37:23.460Z,1025.58
2018-01-14T10:38:23.614Z,1025.56
2018-01-14T10:39:23.413Z,1025.52
2018-01-14T10:40:23.620Z,1025.53
2018-01-14T10:41:23.375Z,1025.5
2018-01-14T10:42:27.024Z,1025.51
2018-01-14T10:43:23.533Z,1025.52
2018-01-14T10:44:23.443Z,1025.53
2018-01-14T10:45:25.426Z,1025.53
2018-01-14T10:46:24.094Z,1025.48
2018-01-14T10:47:23.455Z,1025.47
2018-01-14T10:48:23.418Z,1025.46
2018-01-14T10:49:26.366Z,1025.39
2018-01-14T10:50:23.965Z,1025.39
2018-01-14T10:51:23.484Z,1025.46
2018-01-14T10:52:23.470Z,1025.38
2018-01-14T10:53:23.371Z,1025.39
2018-01-14T10:54:23.446Z,1025.37
2018-01-14T10:55:23.422Z,1025.34
2018-01-14T10:56:23.430Z,1025.34
2018-01-14T10:57:23.422Z,1025.33
2018-01-14T10:58:23.356Z,1025.36
2018-01-14T10:59:27.259Z,1025.34
2018-01-14T11:00:23.463Z,1025.35
2018-01-14T11:01:23.494Z,1025.3
2018-01-14T11:02:23.529Z,1025.37
2018-01-14T11:03:24.043Z,1025.33
2018-01-14T11:04:23.392Z,1025.29
2018-01-14T11:05:31.566Z,1025.28
2018-01-14T11:06:25.153Z,1025.26
2018-01-14T11:07:12.909Z,1025.26
2018-01-14T11:08:13.537Z,1025.22
2018-01-14T11:09:15.221Z,1025.22
2018-01-14T11:10:12.752Z,1025.23
2018-01-14T11:11:12.723Z,1025.18
2018-01-14T11:12:14.559Z,1025.19
2018-01-14T11:13:13.085Z,1025.18
2018-01-14T11:14:12.788Z,1025.14
2018-01-14T11:15:12.731Z,1025.15
2018-01-14T11:16:12.754Z,1025.24
2018-01-14T11:17:12.766Z,1025.2
2018-01-14T11:18:12.925Z,1025.19
2018-01-14T11:19:12.701Z,1025.22
2018-01-14T11:20:12.811Z,1025.19
2018-01-14T11:21:12.763Z,1025.17
2018-01-14T11:22:12.749Z,1025.18
2018-01-14T11:23:12.822Z,1025.14
2018-01-14T11:24:12.973Z,1025.14
2018-01-14T11:25:12.892Z,1025.1
2018-01-14T11:26:12.803Z,1025.04
2018-01-14T11:27:12.850Z,1025.05
2018-01-14T11:28:12.816Z,1025.06
2018-01-14T11:29:12.967Z,1025.01
2018-01-14T11:30:12.777Z,1025.01
2018-01-14T11:31:12.796Z,1025.01
2018-01-14T11:32:12.822Z,1024.99
2018-01-14T11:33:12.821Z,1025.01
2018-01-14T11:34:12.819Z,1025.01
2018-01-14T11:35:12.812Z,1025.05
2018-01-14T11:36:12.813Z,1025.05
2018-01-14T11:37:12.857Z,1025
2018-01-14T11:38:12.806Z,1025.05
2018-01-14T11:39:12.810Z,1025.01
2018-01-14T11:40:12.858Z,1025.02
2018-01-14T11:41:12.841Z,1024.95
2018-01-14T11:42:12.847Z,1025.03
2018-01-14T11:43:12.954Z,1025.02
2018-01-14T11:44:12.989Z,1024.97
2018-01-14T11:45:12.982Z,1024.97
2018-01-14T11:46:12.755Z,1024.96
2018-01-14T11:47:12.743Z,1024.97
2018-01-14T11:48:12.861Z,1024.97
2018-01-14T11:49:12.796Z,1024.94
2018-01-14T11:50:12.938Z,1024.93
2018-01-14T11:51:12.909Z,1024.9
2018-01-14T11:52:12.849Z,1024.89
2018-01-14T11:53:12.832Z,1024.91
2018-01-14T11:54:12.873Z,1024.91
2018-01-14T11:55:12.881Z,1024.91
2018-01-14T11:56:13.049Z,1024.9
2018-01-14T11:57:12.834Z,1024.94
2018-01-14T11:58:12.781Z,1024.9
2018-01-14T11:59:12.821Z,1024.91
2018-01-14T12:00:12.884Z,1024.88
2018-01-14T12:01:13.580Z,1024.88
2018-01-14T12:02:12.854Z,1024.88
2018-01-14T12:03:12.712Z,1024.87
2018-01-14T12:04:12.761Z,1024.87
2018-01-14T12:05:12.840Z,1024.88
2018-01-14T12:06:12.791Z,1024.86
2018-01-14T12:07:12.890Z,1024.84
2018-01-14T12:08:12.858Z,1024.85
2018-01-14T12:09:12.799Z,1024.9
2018-01-14T12:10:12.880Z,1024.87